sensor_id;sensor_type;location;lat;lon;timestamp;pressure;altitude;pressure_sealevel;temperature;humidity
32638;BME280;19045;52.268;10.506;2023-01-05T00:00:53;100034.72;;;9.65;100.00
32638;BME280;19045;52.268;10.506;2023-01-05T00:03:21;100032.63;;;9.67;100.00
32638;BME280;19045;52.268;10.506;2023-01-05T00:05:47;100035.25;;;9.62;100.00
32638;BME280;19045;52.268;10.506;2023-01-05T00:08:14;100039.81;;;9.62;100.00
32638;BME280;19045;52.268;10.506;2023-01-05T00:10:40;100040.59;;;9.57;100.00
32638;BME280;19045;52.268;10.506;2023-01-05T00:13:26;100030.09;;;9.51;100.00
32638;BME280;19045;52.268;10.506;2023-01-05T00:16:12;100033.81;;;9.45;100.00
32638;BME280;19045;52.268;10.506;2023-01-05T00:18:56;100040.78;;;9.46;100.00
32638;BME280;19045;52.268;10.506;2023-01-05T00:21:42;100032.22;;;9.49;100.00
32638;BME280;19045;52.268;10.506;2023-01-05T00:24:27;100043.25;;;9.52;100.00
32638;BME280;19045;52.268;10.506;2023-01-05T00:26:53;100037.06;;;9.52;100.00
32638;BME280;19045;52.268;10.506;2023-01-05T00:29:21;100041.91;;;9.55;100.00
32638;BME280;19045;52.268;10.506;2023-01-05T00:31:48;100046.72;;;9.53;100.00
32638;BME280;19045;52.268;10.506;2023-01-05T00:34:15;100039.78;;;9.57;100.00
32638;BME280;19045;52.268;10.506;2023-01-05T00:36:41;100036.84;;;9.58;100.00
32638;BME280;19045;52.268;10.506;2023-01-05T00:39:08;100038.44;;;9.54;100.00
32638;BME280;19045;52.268;10.506;2023-01-05T00:41:34;100046.44;;;9.49;100.00
32638;BME280;19045;52.268;10.506;2023-01-05T00:44:01;100035.47;;;9.56;100.00
32638;BME280;19045;52.268;10.506;2023-01-05T00:46:29;100032.78;;;9.51;100.00
32638;BME280;19045;52.268;10.506;2023-01-05T00:48:55;100027.94;;;9.48;100.00
32638;BME280;19045;52.268;10.506;2023-01-05T00:51:22;100026.03;;;9.43;100.00
32638;BME280;19045;52.268;10.506;2023-01-05T00:53:49;100030.59;;;9.43;100.00
32638;BME280;19045;52.268;10.506;2023-01-05T00:56:15;100037.56;;;9.44;100.00
32638;BME280;19045;52.268;10.506;2023-01-05T00:58:42;100037.03;;;9.47;100.00
32638;BME280;19045;52.268;10.506;2023-01-05T01:01:09;100033.81;;;9.45;100.00
32638;BME280;19045;52.268;10.506;2023-01-05T01:03:37;100030.06;;;9.46;100.00
32638;BME280;19045;52.268;10.506;2023-01-05T01:06:04;100036.00;;;9.48;100.00
32638;BME280;19045;52.268;10.506;2023-01-05T01:08:31;100028.50;;;9.55;100.00
32638;BME280;19045;52.268;10.506;2023-01-05T01:11:02;100041.66;;;9.56;100.00
32638;BME280;19045;52.268;10.506;2023-01-05T01:13:29;100047.31;;;9.60;100.00
32638;BME280;19045;52.268;10.506;2023-01-05T01:15:55;100041.13;;;9.59;100.00
32638;BME280;19045;52.268;10.506;2023-01-05T01:18:22;100050.25;;;9.58;100.00
32638;BME280;19045;52.268;10.506;2023-01-05T01:20:50;100049.69;;;9.56;100.00
32638;BME280;19045;52.268;10.506;2023-01-05T01:23:17;100055.06;;;9.56;100.00
32638;BME280;19045;52.268;10.506;2023-01-05T01:25:43;100056.41;;;9.59;100.00
32638;BME280;19045;52.268;10.506;2023-01-05T01:28:10;100062.34;;;9.61;100.00
32638;BME280;19045;52.268;10.506;2023-01-05T01:30:37;100068.00;;;9.64;100.00
32638;BME280;19045;52.268;10.506;2023-01-05T01:33:03;100071.47;;;9.65;100.00
32638;BME280;19045;52.268;10.506;2023-01-05T01:35:30;100075.22;;;9.64;100.00
32638;BME280;19045;52.268;10.506;2023-01-05T01:37:58;100078.97;;;9.68;100.00
32638;BME280;19045;52.268;10.506;2023-01-05T01:40:24;100080.59;;;9.64;100.00
32638;BME280;19045;52.268;10.506;2023-01-05T01:42:51;100085.44;;;9.67;100.00
32638;BME280;19045;52.268;10.506;2023-01-05T01:45:19;100069.88;;;9.69;100.00
32638;BME280;19045;52.268;10.506;2023-01-05T01:47:50;100081.97;;;9.71;100.00
32638;BME280;19045;52.268;10.506;2023-01-05T01:50:20;100078.75;;;9.69;100.00
32638;BME280;19045;52.268;10.506;2023-01-05T01:52:49;100072.84;;;9.67;100.00
32638;BME280;19045;52.268;10.506;2023-01-05T01:55:19;100081.97;;;9.71;100.00
32638;BME280;19045;52.268;10.506;2023-01-05T01:57:47;100082.22;;;9.70;100.00
32638;BME280;19045;52.268;10.506;2023-01-05T02:00:16;100085.16;;;9.68;100.00
32638;BME280;19045;52.268;10.506;2023-01-05T02:02:45;100081.19;;;9.71;100.00
32638;BME280;19045;52.268;10.506;2023-01-05T02:05:14;100092.41;;;9.68;100.00
32638;BME280;19045;52.268;10.506;2023-01-05T02:07:44;100070.94;;;9.68;100.00
32638;BME280;19045;52.268;10.506;2023-01-05T02:10:12;100071.75;;;9.68;100.00
32638;BME280;19045;52.268;10.506;2023-01-05T02:12:50;100080.38;;;9.70;100.00
32638;BME280;19045;52.268;10.506;2023-01-05T02:15:24;100075.00;;;9.70;100.00
32638;BME280;19045;52.268;10.506;2023-01-05T02:18:04;100077.97;;;9.74;100.00
32638;BME280;19045;52.268;10.506;2023-01-05T02:26:53;100069.34;;;9.67;100.00
32638;BME280;19045;52.268;10.506;2023-01-05T02:32:46;100069.63;;;9.70;100.00
32638;BME280;19045;52.268;10.506;2023-01-05T02:35:23;100073.13;;;9.71;100.00
32638;BME280;19045;52.268;10.506;2023-01-05T02:38:00;100074.44;;;9.68;100.00
32638;BME280;19045;52.268;10.506;2023-01-05T02:40:32;100062.91;;;9.68;100.00
32638;BME280;19045;52.268;10.506;2023-01-05T02:43:02;100072.03;;;9.67;100.00
32638;BME280;19045;52.268;10.506;2023-01-05T02:45:29;100068.00;;;9.64;100.00
32638;BME280;19045;52.268;10.506;2023-01-05T02:47:57;100069.31;;;9.62;100.00
32638;BME280;19045;52.268;10.506;2023-01-05T02:50:27;100067.13;;;9.59;100.00
32638;BME280;19045;52.268;10.506;2023-01-05T02:52:59;100073.31;;;9.59;100.00
32638;BME280;19045;52.268;10.506;2023-01-05T02:55:33;100072.78;;;9.62;100.00
32638;BME280;19045;52.268;10.506;2023-01-05T02:58:05;100081.13;;;9.66;100.00
32638;BME280;19045;52.268;10.506;2023-01-05T03:00:37;100074.13;;;9.60;100.00
32638;BME280;19045;52.268;10.506;2023-01-05T03:03:10;100088.00;;;9.47;100.00
32638;BME280;19045;52.268;10.506;2023-01-05T03:05:41;100099.19;;;9.39;100.00
32638;BME280;19045;52.268;10.506;2023-01-05T03:08:11;100100.25;;;9.38;100.00
32638;BME280;19045;52.268;10.506;2023-01-05T03:10:54;100095.91;;;9.31;100.00
32638;BME280;19045;52.268;10.506;2023-01-05T03:13:42;100093.19;;;9.26;100.00
32638;BME280;19045;52.268;10.506;2023-01-05T03:16:13;100102.50;;;9.19;100.00
32638;BME280;19045;52.268;10.506;2023-01-05T03:18:43;100096.56;;;9.12;100.00
32638;BME280;19045;52.268;10.506;2023-01-05T03:21:29;100113.19;;;9.14;100.00
32638;BME280;19045;52.268;10.506;2023-01-05T03:24:10;100104.25;;;9.03;100.00
32638;BME280;19045;52.268;10.506;2023-01-05T03:26:54;100107.69;;;8.99;100.00
32638;BME280;19045;52.268;10.506;2023-01-05T03:29:38;100111.16;;;8.94;100.00
32638;BME280;19045;52.268;10.506;2023-01-05T03:32:24;100110.34;;;8.94;100.00
32638;BME280;19045;52.268;10.506;2023-01-05T03:35:16;100107.34;;;8.90;100.00
32638;BME280;19045;52.268;10.506;2023-01-05T03:38:01;100125.09;;;8.96;100.00
32638;BME280;19045;52.268;10.506;2023-01-05T03:40:31;100118.06;;;8.90;100.00
32638;BME280;19045;52.268;10.506;2023-01-05T03:42:58;100125.09;;;8.96;100.00
32638;BME280;19045;52.268;10.506;2023-01-05T03:45:32;100131.81;;;8.99;100.00
32638;BME280;19045;52.268;10.506;2023-01-05T03:48:00;100127.00;;;9.01;100.00
32638;BME280;19045;52.268;10.506;2023-01-05T03:50:28;100120.09;;;9.05;100.00
32638;BME280;19045;52.268;10.506;2023-01-05T03:52:55;100128.06;;;9.00;100.00
32638;BME280;19045;52.268;10.506;2023-01-05T03:55:21;100132.31;;;8.96;100.00
32638;BME280;19045;52.268;10.506;2023-01-05T03:57:48;100124.34;;;9.01;100.00
32638;BME280;19045;52.268;10.506;2023-01-05T04:00:15;100134.44;;;8.94;100.00
32638;BME280;19045;52.268;10.506;2023-01-05T04:02:42;100140.91;;;8.98;100.00
32638;BME280;19045;52.268;10.506;2023-01-05T04:05:08;100125.38;;;9.00;100.00
32638;BME280;19045;52.268;10.506;2023-01-05T04:07:36;100137.72;;;9.01;100.00
32638;BME280;19045;52.268;10.506;2023-01-05T04:10:04;100137.72;;;9.01;100.00
32638;BME280;19045;52.268;10.506;2023-01-05T04:12:31;100138.25;;;8.98;100.00
32638;BME280;19045;52.268;10.506;2023-01-05T04:14:57;100127.00;;;9.01;100.00
32638;BME280;19045;52.268;10.506;2023-01-05T04:17:24;100137.47;;;9.02;100.00
32638;BME280;19045;52.268;10.506;2023-01-05T04:19:50;100142.81;;;9.02;100.00
32638;BME280;19045;52.268;10.506;2023-01-05T04:22:17;100144.75;;;9.07;100.00
32638;BME280;19045;52.268;10.506;2023-01-05T04:24:45;100141.31;;;9.11;100.00
32638;BME280;19045;52.268;10.506;2023-01-05T04:27:14;100151.22;;;9.11;100.00
32638;BME280;19045;52.268;10.506;2023-01-05T04:29:40;100135.97;;;9.11;100.00
32638;BME280;19045;52.268;10.506;2023-01-05T04:32:07;100149.34;;;9.11;100.00
32638;BME280;19045;52.268;10.506;2023-01-05T04:34:34;100155.19;;;9.08;100.00
32638;BME280;19045;52.268;10.506;2023-01-05T04:37:00;100151.47;;;9.09;100.00
32638;BME280;19045;52.268;10.506;2023-01-05T04:39:27;100165.44;;;9.11;100.00
32638;BME280;19045;52.268;10.506;2023-01-05T04:41:55;100154.44;;;9.13;100.00
32638;BME280;19045;52.268;10.506;2023-01-05T04:44:22;100164.34;;;9.12;100.00
32638;BME280;19045;52.268;10.506;2023-01-05T04:46:48;100155.25;;;9.13;100.00
32638;BME280;19045;52.268;10.506;2023-01-05T04:49:15;100159.28;;;9.16;100.00
32638;BME280;19045;52.268;10.506;2023-01-05T04:51:42;100155.50;;;9.12;100.00
32638;BME280;19045;52.268;10.506;2023-01-05T04:54:08;100179.38;;;9.13;100.00
32638;BME280;19045;52.268;10.506;2023-01-05T04:56:35;100167.31;;;9.11;100.00
32638;BME280;19045;52.268;10.506;2023-01-05T04:59:03;100164.34;;;9.12;100.00
32638;BME280;19045;52.268;10.506;2023-01-05T05:01:30;100170.53;;;9.13;100.00
32638;BME280;19045;52.268;10.506;2023-01-05T05:03:56;100172.91;;;9.09;100.00
32638;BME280;19045;52.268;10.506;2023-01-05T05:06:23;100179.38;;;9.13;100.00
32638;BME280;19045;52.268;10.506;2023-01-05T05:08:50;100185.78;;;9.12;100.00
32638;BME280;19045;52.268;10.506;2023-01-05T05:11:16;100183.38;;;9.11;100.00
32638;BME280;19045;52.268;10.506;2023-01-05T05:13:43;100190.03;;;9.08;100.00
32638;BME280;19045;52.268;10.506;2023-01-05T05:16:11;100190.53;;;9.05;100.00
32638;BME280;19045;52.268;10.506;2023-01-05T05:18:37;100189.44;;;9.01;100.00
32638;BME280;19045;52.268;10.506;2023-01-05T05:21:04;100190.22;;;9.02;100.00
32638;BME280;19045;52.268;10.506;2023-01-05T05:23:31;100186.69;;;8.96;100.00
32638;BME280;19045;52.268;10.506;2023-01-05T05:25:57;100190.94;;;8.92;100.00
32638;BME280;19045;52.268;10.506;2023-01-05T05:28:24;100190.13;;;8.92;100.00
32638;BME280;19045;52.268;10.506;2023-01-05T05:30:52;100193.06;;;8.90;100.00
32638;BME280;19045;52.268;10.506;2023-01-05T05:33:20;100198.75;;;8.94;100.00
32638;BME280;19045;52.268;10.506;2023-01-05T05:35:47;100198.84;;;8.82;100.00
32638;BME280;19045;52.268;10.506;2023-01-05T05:38:14;100211.41;;;8.76;100.00
32638;BME280;19045;52.268;10.506;2023-01-05T05:40:41;100207.91;;;8.76;100.00
32638;BME280;19045;52.268;10.506;2023-01-05T05:43:07;100228.00;;;8.78;100.00
32638;BME280;19045;52.268;10.506;2023-01-05T05:45:34;100222.09;;;8.76;100.00
32638;BME280;19045;52.268;10.506;2023-01-05T05:48:00;100226.72;;;8.81;100.00
32638;BME280;19045;52.268;10.506;2023-01-05T05:50:28;100236.34;;;8.82;100.00
32638;BME280;19045;52.268;10.506;2023-01-05T05:52:55;100248.38;;;8.79;100.00
32638;BME280;19045;52.268;10.506;2023-01-05T05:55:21;100232.41;;;8.85;100.00
32638;BME280;19045;52.268;10.506;2023-01-05T05:57:48;100230.75;;;8.83;100.00
32638;BME280;19045;52.268;10.506;2023-01-05T06:00:15;100243.34;;;8.83;100.00
32638;BME280;19045;52.268;10.506;2023-01-05T06:02:42;100239.94;;;8.88;100.00
32638;BME280;19045;52.268;10.506;2023-01-05T06:05:08;100248.78;;;8.88;100.00
32638;BME280;19045;52.268;10.506;2023-01-05T06:07:36;100248.19;;;8.86;100.00
32638;BME280;19045;52.268;10.506;2023-01-05T06:10:03;100245.28;;;8.88;100.00
32638;BME280;19045;52.268;10.506;2023-01-05T06:12:30;100252.50;;;8.87;100.00
32638;BME280;19045;52.268;10.506;2023-01-05T06:14:56;100239.09;;;8.87;100.00
32638;BME280;19045;52.268;10.506;2023-01-05T06:17:23;100242.03;;;8.86;100.00
32638;BME280;19045;52.268;10.506;2023-01-05T06:19:50;100256.53;;;8.90;100.00
32638;BME280;19045;52.268;10.506;2023-01-05T06:22:16;100252.00;;;8.90;100.00
32638;BME280;19045;52.268;10.506;2023-01-05T06:24:44;100262.44;;;8.92;100.00
32638;BME280;19045;52.268;10.506;2023-01-05T06:27:11;100261.66;;;8.91;100.00
32638;BME280;19045;52.268;10.506;2023-01-05T06:29:37;100272.19;;;8.98;100.00
32638;BME280;19045;52.268;10.506;2023-01-05T06:32:04;100271.19;;;9.04;100.00
32638;BME280;19045;52.268;10.506;2023-01-05T06:34:31;100275.72;;;9.03;100.00
32638;BME280;19045;52.268;10.506;2023-01-05T06:36:58;100273.38;;;9.07;100.00
32638;BME280;19045;52.268;10.506;2023-01-05T06:39:24;100287.06;;;9.10;100.00
32638;BME280;19045;52.268;10.506;2023-01-05T06:41:52;100283.88;;;9.13;100.00
32638;BME280;19045;52.268;10.506;2023-01-05T06:44:18;100286.50;;;9.08;100.00
32638;BME280;19045;52.268;10.506;2023-01-05T06:46:45;100290.25;;;9.07;100.00
32638;BME280;19045;52.268;10.506;2023-01-05T06:49:12;100304.38;;;9.03;100.00
32638;BME280;19045;52.268;10.506;2023-01-05T06:51:40;100299.03;;;9.03;100.00
32638;BME280;19045;52.268;10.506;2023-01-05T06:54:07;100296.66;;;9.06;100.00
32638;BME280;19045;52.268;10.506;2023-01-05T06:56:34;100304.88;;;9.00;100.00
32638;BME280;19045;52.268;10.506;2023-01-05T06:59:02;100318.28;;;9.00;100.00
32638;BME280;19045;52.268;10.506;2023-01-05T07:01:28;100310.88;;;9.07;100.00
32638;BME280;19045;52.268;10.506;2023-01-05T07:03:55;100310.00;;;9.01;100.00
32638;BME280;19045;52.268;10.506;2023-01-05T07:06:21;100315.91;;;9.03;100.00
32638;BME280;19045;52.268;10.506;2023-01-05T07:08:48;100336.72;;;8.96;100.00
32638;BME280;19045;52.268;10.506;2023-01-05T07:11:15;100327.06;;;8.95;100.00
32638;BME280;19045;52.268;10.506;2023-01-05T07:13:41;100334.00;;;8.91;100.00
32638;BME280;19045;52.268;10.506;2023-01-05T07:16:14;100360.63;;;8.81;100.00
32638;BME280;19045;52.268;10.506;2023-01-05T07:18:41;100346.16;;;8.82;100.00
32638;BME280;19045;52.268;10.506;2023-01-05T07:21:08;100348.84;;;8.82;100.00
32638;BME280;19045;52.268;10.506;2023-01-05T07:23:34;100346.34;;;8.75;100.00
32638;BME280;19045;52.268;10.506;2023-01-05T07:26:02;100360.00;;;8.74;100.00
32638;BME280;19045;52.268;10.506;2023-01-05T07:28:29;100361.38;;;8.76;100.00
32638;BME280;19045;52.268;10.506;2023-01-05T07:30:55;100354.16;;;8.77;100.00
32638;BME280;19045;52.268;10.506;2023-01-05T07:33:23;100358.78;;;8.81;100.00
32638;BME280;19045;52.268;10.506;2023-01-05T07:35:50;100361.75;;;8.85;100.00
32638;BME280;19045;52.268;10.506;2023-01-05T07:38:16;100370.03;;;8.83;100.00
32638;BME280;19045;52.268;10.506;2023-01-05T07:40:43;100367.91;;;8.86;100.00
32638;BME280;19045;52.268;10.506;2023-01-05T07:43:10;100365.50;;;8.84;100.00
32638;BME280;19045;52.268;10.506;2023-01-05T07:45:36;100383.13;;;8.80;100.00
32638;BME280;19045;52.268;10.506;2023-01-05T07:48:03;100384.25;;;8.84;100.00
32638;BME280;19045;52.268;10.506;2023-01-05T07:50:31;100379.94;;;8.83;100.00
32638;BME280;19045;52.268;10.506;2023-01-05T07:52:58;100384.16;;;8.79;100.00
32638;BME280;19045;52.268;10.506;2023-01-05T07:55:25;100383.34;;;8.78;100.00
32638;BME280;19045;52.268;10.506;2023-01-05T07:57:51;100386.13;;;8.83;100.00
32638;BME280;19045;52.268;10.506;2023-01-05T08:00:18;100396.28;;;8.81;100.00
32638;BME280;19045;52.268;10.506;2023-01-05T08:02:45;100406.50;;;8.85;100.00
32638;BME280;19045;52.268;10.506;2023-01-05T08:05:11;100399.34;;;8.90;100.00
32638;BME280;19045;52.268;10.506;2023-01-05T08:07:39;100414.84;;;8.88;100.00
32638;BME280;19045;52.268;10.506;2023-01-05T08:10:06;100409.50;;;8.88;100.00
32638;BME280;19045;52.268;10.506;2023-01-05T08:12:50;100412.72;;;8.90;100.00
32638;BME280;19045;52.268;10.506;2023-01-05T08:15:34;100435.78;;;8.91;100.00
32638;BME280;19045;52.268;10.506;2023-01-05T08:18:01;100430.44;;;8.91;100.00
32638;BME280;19045;52.268;10.506;2023-01-05T08:20:27;100435.03;;;8.96;100.00
32638;BME280;19045;52.268;10.506;2023-01-05T08:22:55;100447.63;;;8.95;100.00
32638;BME280;19045;52.268;10.506;2023-01-05T08:25:22;100447.06;;;8.93;100.00
32638;BME280;19045;52.268;10.506;2023-01-05T08:27:48;100445.53;;;8.97;100.00
32638;BME280;19045;52.268;10.506;2023-01-05T08:30:15;100453.22;;;8.94;100.00
32638;BME280;19045;52.268;10.506;2023-01-05T08:32:42;100448.19;;;8.97;100.00
32638;BME280;19045;52.268;10.506;2023-01-05T08:35:08;100453.72;;;8.91;100.00
32638;BME280;19045;52.268;10.506;2023-01-05T08:37:35;100442.25;;;8.95;100.00
32638;BME280;19045;52.268;10.506;2023-01-05T08:40:03;100462.56;;;8.91;100.00
32638;BME280;19045;52.268;10.506;2023-01-05T08:42:30;100463.28;;;9.03;100.00
32638;BME280;19045;52.268;10.506;2023-01-05T08:44:57;100464.97;;;9.09;100.00
32638;BME280;19045;52.268;10.506;2023-01-05T08:47:23;100473.84;;;9.10;100.00
32638;BME280;19045;52.268;10.506;2023-01-05T08:49:50;100472.59;;;9.17;100.00
32638;BME280;19045;52.268;10.506;2023-01-05T08:52:17;100475.84;;;9.19;100.00
32638;BME280;19045;52.268;10.506;2023-01-05T08:54:43;100477.97;;;9.17;100.00
32638;BME280;19045;52.268;10.506;2023-01-05T08:57:11;100480.78;;;9.27;100.00
32638;BME280;19045;52.268;10.506;2023-01-05T08:59:38;100476.22;;;9.28;100.00
32638;BME280;19045;52.268;10.506;2023-01-05T09:02:05;100485.66;;;9.30;100.00
32638;BME280;19045;52.268;10.506;2023-01-05T09:04:32;100484.84;;;9.30;100.00
32638;BME280;19045;52.268;10.506;2023-01-05T09:06:59;100487.69;;;9.23;100.00
32638;BME280;19045;52.268;10.506;2023-01-05T09:09:25;100481.84;;;9.26;100.00
32638;BME280;19045;52.268;10.506;2023-01-05T09:11:52;100485.66;;;9.30;100.00
32638;BME280;19045;52.268;10.506;2023-01-05T09:14:20;100492.16;;;9.34;100.00
32638;BME280;19045;52.268;10.506;2023-01-05T09:16:46;100499.06;;;9.30;100.00
32638;BME280;19045;52.268;10.506;2023-01-05T09:19:13;100499.88;;;9.31;100.00
32638;BME280;19045;52.268;10.506;2023-01-05T09:21:40;100497.56;;;9.40;100.00
32638;BME280;19045;52.268;10.506;2023-01-05T09:24:07;100505.28;;;9.36;100.00
32638;BME280;19045;52.268;10.506;2023-01-05T09:26:36;100520.25;;;9.32;100.00
32638;BME280;19045;52.268;10.506;2023-01-05T09:29:03;100526.69;;;9.31;100.00
32638;BME280;19045;52.268;10.506;2023-01-05T09:31:31;100519.19;;;9.33;100.00
32638;BME280;19045;52.268;10.506;2023-01-05T09:33:57;100526.84;;;9.41;100.00
32638;BME280;19045;52.268;10.506;2023-01-05T09:36:24;100531.88;;;9.38;100.00
32638;BME280;19045;52.268;10.506;2023-01-05T09:38:52;100535.06;;;9.34;100.00
32638;BME280;19045;52.268;10.506;2023-01-05T09:41:21;100536.41;;;9.37;100.00
32638;BME280;19045;52.268;10.506;2023-01-05T09:43:53;100541.94;;;9.30;100.00
32638;BME280;19045;52.268;10.506;2023-01-05T09:46:23;100533.00;;;9.25;100.00
32638;BME280;19045;52.268;10.506;2023-01-05T09:48:56;100542.50;;;9.32;100.00
32638;BME280;19045;52.268;10.506;2023-01-05T09:51:24;100545.50;;;9.36;100.00
32638;BME280;19045;52.268;10.506;2023-01-05T09:53:51;100548.91;;;9.31;100.00
32638;BME280;19045;52.268;10.506;2023-01-05T09:56:25;100555.41;;;9.35;100.00
32638;BME280;19045;52.268;10.506;2023-01-05T09:58:59;100566.56;;;9.44;100.00
32638;BME280;19045;52.268;10.506;2023-01-05T10:01:30;100560.53;;;9.54;100.00
32638;BME280;19045;52.268;10.506;2023-01-05T10:04:01;100562.38;;;9.53;100.00
32638;BME280;19045;52.268;10.506;2023-01-05T10:06:31;100575.06;;;9.58;100.00
32638;BME280;19045;52.268;10.506;2023-01-05T10:09:00;100562.72;;;9.57;100.00
32638;BME280;19045;52.268;10.506;2023-01-05T10:11:33;100578.31;;;9.43;100.00
32638;BME280;19045;52.268;10.506;2023-01-05T10:14:23;100580.84;;;9.50;100.00
32638;BME280;19045;52.268;10.506;2023-01-05T10:16:52;100578.72;;;9.52;100.00
32638;BME280;19045;52.268;10.506;2023-01-05T10:19:20;100591.72;;;9.60;100.00
32638;BME280;19045;52.268;10.506;2023-01-05T10:21:54;100599.22;;;9.58;100.00
32638;BME280;19045;52.268;10.506;2023-01-05T10:24:30;100604.13;;;9.66;100.00
32638;BME280;19045;52.268;10.506;2023-01-05T10:27:06;100615.84;;;9.60;100.00
32638;BME280;19045;52.268;10.506;2023-01-05T10:29:40;100634.78;;;9.37;100.00
32638;BME280;19045;52.268;10.506;2023-01-05T10:32:16;100635.56;;;8.87;100.00
32638;BME280;19045;52.268;10.506;2023-01-05T10:34:54;100645.47;;;8.58;100.00
32638;BME280;19045;52.268;10.506;2023-01-05T10:37:36;100649.34;;;8.39;100.00
32638;BME280;19045;52.268;10.506;2023-01-05T10:40:16;100640.75;;;8.25;100.00
32638;BME280;19045;52.268;10.506;2023-01-05T10:42:53;100663.81;;;8.15;100.00
32638;BME280;19045;52.268;10.506;2023-01-05T10:45:27;100663.59;;;8.05;100.00
32638;BME280;19045;52.268;10.506;2023-01-05T10:47:55;100655.69;;;7.98;100.00
32638;BME280;19045;52.268;10.506;2023-01-05T10:50:32;100661.38;;;7.90;100.00
32638;BME280;19045;52.268;10.506;2023-01-05T10:53:07;100674.19;;;7.88;100.00
32638;BME280;19045;52.268;10.506;2023-01-05T10:55:40;100666.75;;;7.90;100.00
32638;BME280;19045;52.268;10.506;2023-01-05T10:58:19;100664.53;;;7.87;100.00
32638;BME280;19045;52.268;10.506;2023-01-05T11:00:46;100655.69;;;7.87;100.00
32638;BME280;19045;52.268;10.506;2023-01-05T11:03:15;100660.56;;;7.90;100.00
32638;BME280;19045;52.268;10.506;2023-01-05T11:05:45;100657.09;;;7.89;100.00
32638;BME280;19045;52.268;10.506;2023-01-05T11:08:14;100669.41;;;7.90;100.00
32638;BME280;19045;52.268;10.506;2023-01-05T11:10:49;100673.00;;;7.96;100.00
32638;BME280;19045;52.268;10.506;2023-01-05T11:13:26;100681.63;;;7.98;100.00
32638;BME280;19045;52.268;10.506;2023-01-05T11:15:55;100680.34;;;8.00;100.00
32638;BME280;19045;52.268;10.506;2023-01-05T11:18:26;100680.13;;;8.02;100.00
32638;BME280;19045;52.268;10.506;2023-01-05T11:21:09;100668.69;;;8.06;100.00
32638;BME280;19045;52.268;10.506;2023-01-05T11:23:38;100673.09;;;8.12;100.00
32638;BME280;19045;52.268;10.506;2023-01-05T11:26:20;100674.63;;;8.20;100.00
32638;BME280;19045;52.268;10.506;2023-01-05T11:28:56;100676.59;;;8.24;100.00
32638;BME280;19045;52.268;10.506;2023-01-05T11:31:27;100675.69;;;8.30;100.00
32638;BME280;19045;52.268;10.506;2023-01-05T11:34:05;100687.22;;;8.31;100.00
32638;BME280;19045;52.268;10.506;2023-01-05T11:36:34;100691.84;;;8.36;100.00
32638;BME280;19045;52.268;10.506;2023-01-05T11:39:01;100685.31;;;8.43;100.00
32638;BME280;19045;52.268;10.506;2023-01-05T11:41:28;100686.47;;;8.47;100.00
32638;BME280;19045;52.268;10.506;2023-01-05T11:43:55;100701.25;;;8.50;100.00
32638;BME280;19045;52.268;10.506;2023-01-05T11:46:25;100694.50;;;8.47;100.00
32638;BME280;19045;52.268;10.506;2023-01-05T11:48:53;100702.66;;;8.41;100.00
32638;BME280;19045;52.268;10.506;2023-01-05T11:51:40;100694.84;;;8.39;100.00
32638;BME280;19045;52.268;10.506;2023-01-05T11:54:27;100707.53;;;8.44;100.00
32638;BME280;19045;52.268;10.506;2023-01-05T11:57:11;100703.31;;;8.59;100.00
32638;BME280;19045;52.268;10.506;2023-01-05T11:59:38;100705.97;;;8.71;100.00
32638;BME280;19045;52.268;10.506;2023-01-05T12:02:20;100703.56;;;8.86;100.00
32638;BME280;19045;52.268;10.506;2023-01-05T12:05:05;100704.16;;;8.88;98.31
32638;BME280;19045;52.268;10.506;2023-01-05T12:07:35;100710.75;;;8.97;98.22
32638;BME280;19045;52.268;10.506;2023-01-05T12:10:25;100705.00;;;9.05;97.39
32638;BME280;19045;52.268;10.506;2023-01-05T12:13:01;100698.22;;;9.14;97.35
32638;BME280;19045;52.268;10.506;2023-01-05T12:15:56;100703.09;;;9.17;95.98
32638;BME280;19045;52.268;10.506;2023-01-05T12:18:43;100699.84;;;9.32;95.66
32638;BME280;19045;52.268;10.506;2023-01-05T12:21:19;100703.63;;;9.31;93.92
32638;BME280;19045;52.268;10.506;2023-01-05T12:23:59;100711.56;;;9.26;94.45
32638;BME280;19045;52.268;10.506;2023-01-05T12:26:31;100707.31;;;9.13;93.97
32638;BME280;19045;52.268;10.506;2023-01-05T12:29:16;100713.63;;;9.07;94.38
32638;BME280;19045;52.268;10.506;2023-01-05T12:32:05;100716.69;;;8.99;94.92
32638;BME280;19045;52.268;10.506;2023-01-05T12:34:50;100709.25;;;9.01;94.83
32638;BME280;19045;52.268;10.506;2023-01-05T12:37:30;100723.88;;;9.10;94.20
32638;BME280;19045;52.268;10.506;2023-01-05T12:40:37;100722.50;;;9.08;94.36
32638;BME280;19045;52.268;10.506;2023-01-05T12:43:09;100729.53;;;8.97;95.50
32638;BME280;19045;52.268;10.506;2023-01-05T12:46:07;100726.38;;;8.89;96.55
32638;BME280;19045;52.268;10.506;2023-01-05T12:48:39;100732.81;;;8.88;98.08
32638;BME280;19045;52.268;10.506;2023-01-05T12:51:11;100731.31;;;8.80;98.51
32638;BME280;19045;52.268;10.506;2023-01-05T12:53:44;100729.13;;;8.77;99.29
32638;BME280;19045;52.268;10.506;2023-01-05T12:56:21;100727.47;;;8.76;99.97
32638;BME280;19045;52.268;10.506;2023-01-05T12:59:04;100724.19;;;8.86;100.00
32638;BME280;19045;52.268;10.506;2023-01-05T13:01:37;100739.34;;;9.08;99.20
32638;BME280;19045;52.268;10.506;2023-01-05T13:04:13;100735.75;;;9.14;98.73
32638;BME280;19045;52.268;10.506;2023-01-05T13:06:44;100734.88;;;8.97;99.14